Time;durP1;ratioP1;P1;durP2;ratioP2;P2;SDS_P1;SDS_P2;PMS_P1;PMS_P2;Temp;Humidity;BMP_temperature;BMP_pressure;BME280_temperature;BME280_humidity;BME280_pressure;Samples;Min_cycle;Max_cycle;Signal;HPM_P1;HPM_P2
2021/09/20 00:00:50;;;;;;;3.10;2.30;;;14.30;77.80;;;;;;5035079;28;20070;-64
2021/09/20 00:03:15;;;;;;;4.47;2.22;;;14.40;77.70;;;;;;5050396;28;20023;-64
2021/09/20 00:05:41;;;;;;;4.03;2.92;;;14.40;77.70;;;;;;5055265;28;20071;-64
2021/09/20 00:08:07;;;;;;;4.28;2.50;;;14.30;77.60;;;;;;5051367;28;20523;-64
2021/09/20 00:10:33;;;;;;;4.88;2.83;;;14.30;77.60;;;;;;5055253;28;20068;-64
2021/09/20 00:12:58;;;;;;;3.42;2.10;;;14.30;77.70;;;;;;5052949;28;20052;-64
2021/09/20 00:15:24;;;;;;;2.67;2.17;;;14.20;77.80;;;;;;5052863;28;20022;-64
2021/09/20 00:17:49;;;;;;;4.57;2.63;;;14.20;77.80;;;;;;5052320;28;20497;-64
2021/09/20 00:20:16;;;;;;;3.65;3.05;;;14.20;77.90;;;;;;5053034;28;20516;-64
2021/09/20 00:22:42;;;;;;;5.75;3.75;;;14.10;77.90;;;;;;5057420;28;20477;-64
2021/09/20 00:25:08;;;;;;;4.38;2.60;;;14.10;78.00;;;;;;5055335;28;20037;-64
2021/09/20 00:27:34;;;;;;;3.97;2.75;;;14.00;78.00;;;;;;5049630;28;20021;-64
2021/09/20 00:29:59;;;;;;;4.85;3.10;;;14.00;78.00;;;;;;5052743;28;20040;-64
2021/09/20 00:32:25;;;;;;;3.38;2.47;;;13.90;78.00;;;;;;5052577;28;20016;-64
2021/09/20 00:34:50;;;;;;;4.35;2.60;;;13.90;78.00;;;;;;5050012;28;20084;-64
2021/09/20 00:37:17;;;;;;;3.75;2.30;;;13.90;78.00;;;;;;5052364;28;20036;-64
2021/09/20 00:39:43;;;;;;;2.08;1.75;;;13.90;78.10;;;;;;5052358;28;20017;-64
2021/09/20 00:42:08;;;;;;;4.60;1.95;;;13.90;78.20;;;;;;5034667;28;20120;-64
2021/09/20 00:44:34;;;;;;;2.55;1.65;;;13.80;78.20;;;;;;5053866;28;20481;-64
2021/09/20 00:47:00;;;;;;;3.30;2.58;;;13.80;78.20;;;;;;5034561;28;20041;-64
2021/09/20 00:49:25;;;;;;;4.85;2.53;;;13.80;78.20;;;;;;5055009;28;20063;-64
2021/09/20 00:51:51;;;;;;;3.10;2.40;;;13.70;78.30;;;;;;5048989;28;20037;-64
2021/09/20 00:54:17;;;;;;;2.97;2.25;;;13.70;78.30;;;;;;5034493;28;20507;-64
2021/09/20 00:56:43;;;;;;;2.85;1.88;;;13.70;78.40;;;;;;5052054;28;20497;-64
2021/09/20 00:59:09;;;;;;;3.13;2.22;;;13.70;78.50;;;;;;5049118;28;20099;-64
2021/09/20 01:01:35;;;;;;;3.35;2.10;;;13.70;78.50;;;;;;5048226;28;20108;-64
2021/09/20 01:04:11;;;;;;;4.20;2.28;;;13.60;78.40;;;;;;5053157;28;20417;-64
2021/09/20 01:06:36;;;;;;;3.17;2.28;;;13.60;78.50;;;;;;5033656;28;20049;-64
2021/09/20 01:09:02;;;;;;;5.38;2.90;;;13.60;78.60;;;;;;5053567;28;20057;-64
2021/09/20 01:11:28;;;;;;;2.92;2.20;;;13.50;78.60;;;;;;5049674;28;20151;-64
2021/09/20 01:13:53;;;;;;;3.22;2.53;;;13.50;78.70;;;;;;5048775;28;20479;-64
2021/09/20 01:16:19;;;;;;;4.07;2.60;;;13.50;78.80;;;;;;5050058;28;20028;-64
2021/09/20 01:18:44;;;;;;;3.85;2.70;;;13.50;78.90;;;;;;5053342;28;20089;-64
2021/09/20 01:21:13;;;;;;;4.13;3.00;;;13.40;78.90;;;;;;5051351;28;20504;-64
2021/09/20 01:23:39;;;;;;;3.28;2.83;;;13.40;79.00;;;;;;5047120;28;20028;-64
2021/09/20 01:26:05;;;;;;;3.83;3.15;;;13.40;79.10;;;;;;5053142;28;20028;-64
2021/09/20 01:28:30;;;;;;;4.30;3.15;;;13.40;79.10;;;;;;5048681;28;20079;-64
2021/09/20 01:30:56;;;;;;;4.15;3.00;;;13.30;79.10;;;;;;5050847;28;20029;-64
2021/09/20 01:33:21;;;;;;;3.53;2.88;;;13.30;79.30;;;;;;5048415;28;20017;-64
2021/09/20 01:35:47;;;;;;;5.90;3.22;;;13.20;79.30;;;;;;5019195;28;20033;-64
2021/09/20 01:38:13;;;;;;;3.85;2.90;;;13.20;79.40;;;;;;5054153;28;20079;-64
2021/09/20 01:40:38;;;;;;;4.30;2.83;;;13.20;79.40;;;;;;5046862;28;20044;-64
2021/09/20 01:43:04;;;;;;;3.63;2.65;;;13.20;79.50;;;;;;5046886;28;20040;-64
2021/09/20 01:45:29;;;;;;;3.72;2.45;;;13.10;79.50;;;;;;5051028;28;20033;-64
2021/09/20 01:47:55;;;;;;;3.88;2.67;;;13.10;79.60;;;;;;5051449;28;20024;-64
2021/09/20 01:50:21;;;;;;;3.58;2.20;;;13.10;79.70;;;;;;5033663;28;20489;-64
2021/09/20 01:52:47;;;;;;;4.93;3.00;;;13.00;79.80;;;;;;5032950;28;21172;-64
2021/09/20 01:55:13;;;;;;;3.47;2.72;;;13.00;79.80;;;;;;5031709;28;20524;-64
2021/09/20 01:57:39;;;;;;;3.30;2.35;;;13.00;79.90;;;;;;5034628;28;20029;-64
2021/09/20 02:00:08;;;;;;;5.13;2.67;;;13.00;79.90;;;;;;5025424;28;20040;-64
2021/09/20 02:02:33;;;;;;;4.55;3.05;;;12.90;79.90;;;;;;5048499;28;20051;-64
2021/09/20 02:04:59;;;;;;;3.28;2.45;;;12.90;80.00;;;;;;5049644;28;20030;-64
2021/09/20 02:07:24;;;;;;;3.67;2.78;;;12.80;80.00;;;;;;5051427;28;20103;-64
2021/09/20 02:09:50;;;;;;;4.15;2.55;;;12.80;80.20;;;;;;5050455;28;20024;-64
2021/09/20 02:12:16;;;;;;;3.53;2.58;;;12.70;80.30;;;;;;5033857;28;20019;-64
2021/09/20 02:14:41;;;;;;;3.97;2.95;;;12.70;80.50;;;;;;5032990;28;20071;-64
2021/09/20 02:17:07;;;;;;;3.35;2.70;;;12.70;80.60;;;;;;5032781;28;20029;-64
2021/09/20 02:19:33;;;;;;;3.58;2.83;;;12.60;80.70;;;;;;5048903;28;20459;-64
2021/09/20 02:21:58;;;;;;;4.35;3.33;;;12.60;80.80;;;;;;5039804;28;20436;-64
2021/09/20 02:24:24;;;;;;;4.85;2.83;;;12.60;81.00;;;;;;5035371;28;20029;-64
2021/09/20 02:26:49;;;;;;;4.38;3.35;;;12.50;81.00;;;;;;5049263;28;20021;-64
2021/09/20 02:29:15;;;;;;;5.50;3.50;;;12.50;81.20;;;;;;5054637;28;20035;-64
2021/09/20 02:31:41;;;;;;;5.72;3.70;;;12.40;81.20;;;;;;5052022;28;20021;-64
2021/09/20 02:34:06;;;;;;;4.10;3.35;;;12.40;81.30;;;;;;5036573;28;20476;-64
2021/09/20 02:36:32;;;;;;;4.93;3.53;;;12.40;81.40;;;;;;5054448;28;20020;-65
2021/09/20 02:38:58;;;;;;;4.65;3.28;;;12.30;81.60;;;;;;5054400;28;20120;-64
2021/09/20 02:41:24;;;;;;;4.22;3.05;;;12.30;81.70;;;;;;5036638;28;20029;-64
2021/09/20 02:43:49;;;;;;;3.50;2.83;;;12.30;81.90;;;;;;5036300;28;20451;-64
2021/09/20 02:46:15;;;;;;;4.82;3.45;;;12.20;82.00;;;;;;5051527;28;20063;-64
2021/09/20 02:48:41;;;;;;;3.50;2.78;;;12.20;82.30;;;;;;5054256;28;20045;-64
2021/09/20 02:51:07;;;;;;;4.47;2.78;;;12.20;82.40;;;;;;5054186;28;20079;-63
2021/09/20 02:53:33;;;;;;;4.70;3.03;;;12.20;82.60;;;;;;5036474;28;20405;-64
2021/09/20 02:55:58;;;;;;;3.85;3.15;;;12.10;82.70;;;;;;5051182;28;20032;-64
2021/09/20 02:58:24;;;;;;;4.63;3.05;;;12.10;82.70;;;;;;5051953;28;20021;-65
2021/09/20 03:00:50;;;;;;;4.10;3.15;;;12.10;82.80;;;;;;5053746;28;20025;-64
2021/09/20 03:03:16;;;;;;;3.70;2.88;;;12.10;83.50;;;;;;5057379;28;20074;-64
2021/09/20 03:05:41;;;;;;;3.58;2.70;;;12.00;82.90;;;;;;5054235;28;20108;-64
2021/09/20 03:08:07;;;;;;;3.95;3.05;;;12.00;83.10;;;;;;5054178;28;20114;-64
2021/09/20 03:10:34;;;;;;;4.43;2.97;;;11.90;83.20;;;;;;5052818;28;20025;-64
2021/09/20 03:13:00;;;;;;;3.88;3.17;;;11.90;83.30;;;;;;5055057;28;20481;-64
2021/09/20 03:15:26;;;;;;;5.32;3.15;;;11.90;83.50;;;;;;5051261;28;20465;-64
2021/09/20 03:17:51;;;;;;;4.05;3.28;;;11.80;83.50;;;;;;5056845;28;20108;-64
2021/09/20 03:20:17;;;;;;;4.05;2.90;;;11.80;83.60;;;;;;5053911;28;20053;-64
2021/09/20 03:22:42;;;;;;;3.88;2.90;;;11.80;83.70;;;;;;5053861;28;20028;-64
2021/09/20 03:25:10;;;;;;;4.00;2.53;;;11.80;83.90;;;;;;5054070;28;20064;-64
2021/09/20 03:27:36;;;;;;;4.65;3.25;;;11.80;84.00;;;;;;5038263;28;20029;-64
2021/09/20 03:30:02;;;;;;;4.18;2.88;;;11.70;84.10;;;;;;5051201;28;20045;-64
2021/09/20 03:32:28;;;;;;;3.60;2.70;;;11.60;84.20;;;;;;5049232;28;20128;-64
2021/09/20 03:34:54;;;;;;;8.23;2.75;;;11.60;84.30;;;;;;5053722;28;20113;-64
2021/09/20 03:37:19;;;;;;;4.43;3.30;;;11.60;84.50;;;;;;5035956;28;20473;-64
2021/09/20 03:40:05;;;;;;;4.80;2.85;;;11.60;84.50;;;;;;5056507;28;20504;-64
2021/09/20 03:42:31;;;;;;;4.22;2.92;;;11.50;84.40;;;;;;5052851;28;20408;-64
2021/09/20 03:44:56;;;;;;;3.45;2.67;;;11.50;84.70;;;;;;5056567;28;20105;-64
2021/09/20 03:47:22;;;;;;;4.55;3.28;;;11.50;84.70;;;;;;5056227;28;20385;-64
2021/09/20 03:49:48;;;;;;;3.80;3.03;;;11.50;84.90;;;;;;5035017;28;20029;-64
2021/09/20 03:52:13;;;;;;;5.07;3.00;;;11.40;84.90;;;;;;5052458;28;20048;-64
2021/09/20 03:54:39;;;;;;;3.65;3.28;;;11.40;85.10;;;;;;5050587;28;20022;-64
2021/09/20 03:57:05;;;;;;;3.92;2.92;;;11.40;85.20;;;;;;5053257;28;20017;-64
2021/09/20 03:59:30;;;;;;;4.95;3.50;;;11.40;85.30;;;;;;5055300;28;20020;-63
2021/09/20 04:01:56;;;;;;;5.35;3.80;;;11.40;85.30;;;;;;5050003;28;20025;-64
2021/09/20 04:04:22;;;;;;;4.68;3.67;;;11.40;85.40;;;;;;5035187;28;20017;-64
2021/09/20 04:06:48;;;;;;;5.55;3.80;;;11.30;85.40;;;;;;5058747;28;20388;-64
2021/09/20 04:09:13;;;;;;;7.97;4.47;;;11.30;85.60;;;;;;5050248;28;20035;-64
2021/09/20 04:11:40;;;;;;;5.30;4.18;;;11.20;85.70;;;;;;5051377;28;20025;-64
2021/09/20 04:14:07;;;;;;;4.22;3.42;;;11.20;85.90;;;;;;5056016;28;20023;-64
2021/09/20 04:16:33;;;;;;;4.60;3.78;;;11.20;86.00;;;;;;5052852;28;20025;-64
2021/09/20 04:18:58;;;;;;;4.47;3.45;;;11.20;86.00;;;;;;5052956;28;20036;-64
2021/09/20 04:21:23;;;;;;;3.92;3.33;;;11.20;86.10;;;;;;5037880;28;20380;-64
2021/09/20 04:23:49;;;;;;;4.80;3.80;;;11.10;86.10;;;;;;5052578;28;20025;-64
2021/09/20 04:26:15;;;;;;;4.63;3.63;;;11.10;86.10;;;;;;5049205;28;20029;-64
2021/09/20 04:28:40;;;;;;;5.07;3.80;;;11.10;86.30;;;;;;5050774;28;20065;-64
2021/09/20 04:31:06;;;;;;;6.18;4.00;;;11.10;86.40;;;;;;5049283;28;20017;-64
2021/09/20 04:33:31;;;;;;;4.28;3.55;;;11.10;86.40;;;;;;5034520;28;20024;-64
2021/09/20 04:35:57;;;;;;;7.30;3.55;;;11.10;86.50;;;;;;5055363;28;20022;-64
2021/09/20 04:38:22;;;;;;;5.70;4.00;;;11.10;86.50;;;;;;5052341;28;20037;-64
2021/09/20 04:40:48;;;;;;;5.45;3.85;;;11.10;86.60;;;;;;5032025;28;20120;-64
2021/09/20 04:43:14;;;;;;;5.63;3.80;;;11.00;86.60;;;;;;5051586;28;20103;-64
2021/09/20 04:45:41;;;;;;;4.82;3.70;;;11.00;86.70;;;;;;5049681;28;20028;-64
2021/09/20 04:48:10;;;;;;;5.10;3.95;;;11.00;86.70;;;;;;5052282;28;20509;-64
2021/09/20 04:50:40;;;;;;;5.10;3.80;;;11.00;86.80;;;;;;5052192;28;20133;-64
2021/09/20 04:53:06;;;;;;;5.97;4.30;;;10.90;87.00;;;;;;5042539;28;20034;-64
2021/09/20 04:55:31;;;;;;;5.78;4.07;;;10.90;87.20;;;;;;5048132;28;20025;-64
2021/09/20 04:57:56;;;;;;;4.78;3.70;;;10.90;87.40;;;;;;5051629;28;20047;-64
2021/09/20 05:00:22;;;;;;;5.07;4.03;;;10.80;87.40;;;;;;5031341;28;20021;-64
2021/09/20 05:02:47;;;;;;;4.70;3.70;;;10.90;87.50;;;;;;5050364;28;20025;-64
2021/09/20 05:05:13;;;;;;;7.78;3.85;;;10.90;87.50;;;;;;5051752;28;20029;-64
2021/09/20 05:07:39;;;;;;;5.15;3.55;;;10.90;87.60;;;;;;5049007;28;20028;-64
2021/09/20 05:10:05;;;;;;;6.57;4.32;;;10.90;87.60;;;;;;5030623;28;20021;-64
2021/09/20 05:12:31;;;;;;;5.72;4.05;;;10.90;87.70;;;;;;5052145;28;20427;-64
2021/09/20 05:14:56;;;;;;;4.80;3.47;;;10.90;87.70;;;;;;5055197;28;20398;-64
2021/09/20 05:17:25;;;;;;;4.88;3.20;;;10.90;87.70;;;;;;5048984;28;20025;-64
2021/09/20 05:19:50;;;;;;;5.10;3.80;;;10.80;87.70;;;;;;5051300;28;20440;-64
2021/09/20 05:22:24;;;;;;;5.47;3.85;;;10.80;87.80;;;;;;5049516;28;20029;-64
2021/09/20 05:24:50;;;;;;;4.65;3.40;;;10.80;87.90;;;;;;5056728;28;20021;-64
2021/09/20 05:27:15;;;;;;;5.63;4.25;;;10.80;88.00;;;;;;5045513;28;20033;-65
2021/09/20 05:29:41;;;;;;;5.93;4.30;;;10.80;88.10;;;;;;5045616;28;20025;-64
2021/09/20 05:32:26;;;;;;;5.10;3.97;;;10.70;88.20;;;;;;5034533;28;20025;-64
2021/09/20 05:35:07;;;;;;;;;;;;;;;;;;;;;
2021/09/20 05:37:33;;;;;;;4.90;3.72;;;10.70;88.50;;;;;;5040315;28;20032;-65
2021/09/20 05:40:10;;;;;;;4.80;3.42;;;10.70;88.50;;;;;;5052682;28;20112;-64
2021/09/20 05:42:36;;;;;;;6.25;4.35;;;10.70;88.50;;;;;;5040208;28;20044;-65
2021/09/20 05:45:02;;;;;;;5.60;3.85;;;10.70;88.60;;;;;;5051485;28;20104;-64
2021/09/20 05:47:28;;;;;;;4.57;3.10;;;10.70;88.60;;;;;;5051540;28;20029;-64
2021/09/20 05:49:53;;;;;;;5.40;3.38;;;10.70;88.60;;;;;;5048203;28;20036;-64
2021/09/20 05:52:22;;;;;;;6.00;3.38;;;10.70;88.70;;;;;;5050473;28;20045;-64
2021/09/20 05:54:47;;;;;;;6.45;4.10;;;10.70;88.60;;;;;;5038924;28;20470;-65
2021/09/20 05:57:13;;;;;;;6.15;3.85;;;10.70;88.80;;;;;;5050603;28;20520;-64
2021/09/20 05:59:38;;;;;;;4.75;3.70;;;10.80;88.80;;;;;;5041909;28;20021;-64
2021/09/20 06:02:04;;;;;;;5.82;4.38;;;10.80;88.90;;;;;;5048468;28;20029;-64
2021/09/20 06:04:29;;;;;;;6.07;4.50;;;10.80;88.90;;;;;;5043975;28;20025;-64
2021/09/20 06:06:55;;;;;;;6.40;4.50;;;10.80;89.00;;;;;;5045979;28;20029;-64
2021/09/20 06:09:22;;;;;;;8.45;5.32;;;10.80;89.20;;;;;;5031751;28;20053;-64
2021/09/20 06:11:47;;;;;;;6.68;5.13;;;10.80;89.40;;;;;;5039695;28;20017;-64
2021/09/20 06:14:13;;;;;;;7.95;4.82;;;10.80;89.60;;;;;;5044951;28;20083;-65
2021/09/20 06:16:38;;;;;;;7.80;5.57;;;10.90;89.90;;;;;;5030458;28;20473;-64
2021/09/20 06:19:04;;;;;;;7.22;5.18;;;10.90;90.00;;;;;;5041384;28;20060;-64
2021/09/20 06:21:30;;;;;;;6.00;5.07;;;10.90;90.10;;;;;;5043853;28;20123;-64
2021/09/20 06:23:55;;;;;;;7.00;5.00;;;10.90;90.20;;;;;;5046764;28;20056;-65
2021/09/20 06:26:21;;;;;;;7.25;4.47;;;10.90;90.30;;;;;;5053678;28;20495;-65
2021/09/20 06:28:46;;;;;;;7.22;5.20;;;10.90;90.30;;;;;;5047374;28;20443;-65
2021/09/20 06:31:11;;;;;;;8.10;5.20;;;11.00;90.50;;;;;;5040502;28;20096;-64
2021/09/20 06:33:37;;;;;;;10.32;6.75;;;11.00;90.60;;;;;;5056250;28;20029;-64
2021/09/20 06:36:29;;;;;;;7.35;6.03;;;11.10;90.80;;;;;;5051691;28;20025;-65
2021/09/20 06:38:56;;;;;;;8.43;6.35;;;11.10;90.90;;;;;;5048690;28;20365;-64
2021/09/20 06:41:25;;;;;;;8.25;6.35;;;11.20;91.10;;;;;;5045038;28;20452;-64
2021/09/20 06:43:51;;;;;;;8.27;6.73;;;11.20;91.10;;;;;;5048725;28;20163;-64
2021/09/20 06:46:24;;;;;;;8.05;6.70;;;11.20;91.30;;;;;;5048936;28;21467;-64
2021/09/20 06:48:50;;;;;;;9.23;6.63;;;11.40;91.50;;;;;;5048028;28;20021;-64
2021/09/20 06:51:16;;;;;;;8.98;7.28;;;11.40;91.60;;;;;;5050006;28;20051;-64
2021/09/20 06:53:41;;;;;;;10.02;6.68;;;11.40;91.70;;;;;;5047555;28;20033;-65
2021/09/20 06:56:08;;;;;;;9.35;7.05;;;11.50;91.70;;;;;;5032410;28;20412;-64
2021/09/20 06:58:35;;;;;;;9.80;7.47;;;11.60;91.70;;;;;;5045707;28;20035;-64
2021/09/20 07:01:00;;;;;;;9.82;7.07;;;11.60;91.90;;;;;;5047732;28;20132;-64
2021/09/20 07:03:26;;;;;;;10.40;8.27;;;11.70;92.10;;;;;;5049370;28;20057;-64
2021/09/20 07:05:54;;;;;;;11.15;8.02;;;11.70;92.20;;;;;;5051801;28;20031;-64
2021/09/20 07:08:19;;;;;;;8.38;7.10;;;11.80;92.10;;;;;;5051432;28;20051;-64
2021/09/20 07:10:47;;;;;;;10.00;7.80;;;11.80;92.00;;;;;;5054347;28;20488;-65
2021/09/20 07:13:13;;;;;;;9.77;7.82;;;11.90;92.00;;;;;;5048537;28;20075;-64
2021/09/20 07:15:38;;;;;;;12.32;8.23;;;12.00;91.90;;;;;;5050879;28;20021;-65
2021/09/20 07:18:05;;;;;;;10.38;7.72;;;12.00;91.70;;;;;;5054788;28;20021;-65
2021/09/20 07:20:32;;;;;;;12.20;9.18;;;12.10;91.70;;;;;;5050832;28;20070;-65
2021/09/20 07:22:57;;;;;;;10.07;8.18;;;12.10;91.60;;;;;;5050987;28;20029;-65
2021/09/20 07:25:23;;;;;;;10.57;8.07;;;12.20;91.50;;;;;;5036516;28;20031;-65
2021/09/20 07:27:48;;;;;;;9.15;7.75;;;12.20;91.30;;;;;;5053383;28;20115;-65
2021/09/20 07:30:22;;;;;;;10.70;7.78;;;12.30;91.30;;;;;;5054609;28;20025;-65
2021/09/20 07:32:50;;;;;;;11.00;8.70;;;12.30;91.20;;;;;;5054702;28;20029;-65
2021/09/20 07:35:17;;;;;;;12.30;9.05;;;12.40;91.00;;;;;;5040850;28;20051;-65
2021/09/20 07:37:48;;;;;;;11.80;8.48;;;12.40;90.80;;;;;;5026733;28;20029;-65
2021/09/20 07:40:15;;;;;;;11.48;7.60;;;12.50;90.70;;;;;;5048931;28;20029;-65
2021/09/20 07:42:42;;;;;;;11.45;8.32;;;12.50;90.50;;;;;;5025448;28;20154;-65
2021/09/20 07:45:09;;;;;;;11.18;9.25;;;12.60;90.30;;;;;;5053495;28;20374;-64
2021/09/20 07:47:34;;;;;;;10.80;8.10;;;12.70;90.10;;;;;;5053520;28;20029;-65
2021/09/20 07:50:00;;;;;;;11.15;7.90;;;12.70;90.00;;;;;;5062073;28;20020;-65
2021/09/20 07:52:34;;;;;;;11.45;7.75;;;12.80;90.00;;;;;;5039995;28;20048;-65
2021/09/20 07:54:59;;;;;;;10.15;8.38;;;12.90;89.60;;;;;;5031729;28;20100;-65
2021/09/20 07:57:26;;;;;;;9.52;7.60;;;12.90;89.10;;;;;;5048964;28;20461;-65
2021/09/20 07:59:51;;;;;;;10.13;7.78;;;13.00;88.80;;;;;;5022237;28;20117;-65
2021/09/20 08:02:17;;;;;;;9.85;7.53;;;13.10;88.60;;;;;;5042744;28;20100;-65
2021/09/20 08:04:42;;;;;;;9.40;7.28;;;13.10;88.50;;;;;;5051390;28;20021;-65
2021/09/20 08:07:08;;;;;;;9.50;7.35;;;13.20;88.50;;;;;;5060592;28;20029;-64
2021/09/20 08:09:33;;;;;;;10.98;7.68;;;13.30;88.20;;;;;;5058346;28;20028;-65
2021/09/20 08:12:30;;;;;;;8.75;7.43;;;13.40;87.90;;;;;;5052421;28;20025;-65
2021/09/20 08:14:55;;;;;;;10.80;8.25;;;13.50;87.30;;;;;;5049077;28;20068;-65
2021/09/20 08:17:21;;;;;;;12.02;8.75;;;13.50;86.40;;;;;;5033237;28;20017;-65
2021/09/20 08:19:46;;;;;;;9.77;7.75;;;13.60;85.20;;;;;;5047828;28;20025;-65
2021/09/20 08:22:12;;;;;;;10.18;7.35;;;13.70;84.50;;;;;;5039495;28;20100;-65
2021/09/20 08:24:37;;;;;;;9.30;7.15;;;13.80;84.10;;;;;;5053715;28;20036;-65
2021/09/20 08:27:26;;;;;;;10.05;8.05;;;13.90;83.70;;;;;;5039633;28;20059;-65
2021/09/20 08:29:52;;;;;;;8.55;6.72;;;14.10;83.00;;;;;;5054134;28;20059;-65
2021/09/20 08:32:19;;;;;;;8.43;7.05;;;14.10;82.90;;;;;;5039472;28;20018;-65
2021/09/20 08:34:45;;;;;;;11.65;7.43;;;14.20;82.80;;;;;;5042705;28;20543;-65
2021/09/20 08:37:11;;;;;;;8.07;7.07;;;14.30;82.60;;;;;;5047713;28;20524;-65
2021/09/20 08:39:37;;;;;;;9.77;6.25;;;14.40;82.50;;;;;;5044246;28;20109;-65
2021/09/20 08:42:03;;;;;;;9.57;6.60;;;14.50;82.50;;;;;;5047637;28;20033;-65
2021/09/20 08:44:29;;;;;;;11.40;7.43;;;14.60;82.30;;;;;;5040584;28;20104;-65
2021/09/20 08:47:09;;;;;;;8.38;7.05;;;14.60;82.00;;;;;;5035455;28;20120;-65
2021/09/20 08:49:38;;;;;;;9.20;7.82;;;14.70;81.20;;;;;;5033449;28;20080;-65
2021/09/20 08:52:04;;;;;;;8.93;7.40;;;14.80;80.80;;;;;;5045370;28;20401;-65
2021/09/20 08:54:30;;;;;;;8.75;7.28;;;14.80;80.30;;;;;;5019011;28;20025;-65
2021/09/20 08:56:55;;;;;;;7.60;6.25;;;14.90;80.00;;;;;;5022127;28;20037;-65
2021/09/20 08:59:22;;;;;;;10.35;7.38;;;15.00;79.90;;;;;;5031243;28;20032;-66
2021/09/20 09:01:51;;;;;;;10.20;7.53;;;15.00;79.50;;;;;;5032722;28;20037;-65
2021/09/20 09:04:35;;;;;;;8.48;7.57;;;15.00;78.90;;;;;;5033021;28;20032;-65
2021/09/20 09:07:13;;;;;;;7.20;6.03;;;15.10;78.10;;;;;;5020739;28;20030;-65
2021/09/20 09:09:48;;;;;;;7.47;6.68;;;15.20;78.20;;;;;;5032006;28;20512;-65
2021/09/20 09:12:19;;;;;;;10.73;6.63;;;15.20;78.20;;;;;;5026911;28;20537;-65
2021/09/20 09:14:58;;;;;;;6.93;6.20;;;15.30;77.70;;;;;;5029587;28;20493;-65
2021/09/20 09:17:39;;;;;;;7.50;6.10;;;15.30;76.40;;;;;;5032701;28;20017;-65
2021/09/20 09:20:10;;;;;;;6.38;5.47;;;15.30;76.00;;;;;;5027543;28;20025;-65
2021/09/20 09:22:39;;;;;;;7.00;5.75;;;15.40;76.00;;;;;;5014845;28;20021;-65
2021/09/20 09:25:07;;;;;;;5.82;5.18;;;15.50;75.30;;;;;;5032322;28;20029;-65
2021/09/20 09:27:36;;;;;;;6.05;5.15;;;15.60;74.80;;;;;;5011905;28;20014;-65
2021/09/20 09:30:04;;;;;;;;;;;15.70;73.90;;;;;;5026457;28;20017;-65
2021/09/20 09:32:30;;;;;;;5.53;4.45;;;15.70;72.70;;;;;;5031518;28;19909;-65
2021/09/20 09:34:58;;;;;;;6.75;5.15;;;15.70;72.30;;;;;;5028955;28;20092;-65
2021/09/20 09:37:25;;;;;;;6.15;5.55;;;15.80;72.40;;;;;;5014064;28;20406;-65
2021/09/20 09:40:09;;;;;;;6.88;5.03;;;15.90;71.40;;;;;;5029275;28;20471;-65
2021/09/20 09:42:35;;;;;;;5.95;4.57;;;16.00;71.40;;;;;;5028351;28;20014;-65
2021/09/20 09:45:14;;;;;;;6.10;4.57;;;16.10;71.10;;;;;;5026047;28;20084;-65
2021/09/20 09:47:40;;;;;;;6.18;5.03;;;16.30;70.00;;;;;;5031934;28;20116;-66
2021/09/20 09:50:23;;;;;;;6.53;5.13;;;16.30;69.30;;;;;;5031766;28;20108;-65
2021/09/20 09:52:52;;;;;;;6.53;5.53;;;16.40;68.50;;;;;;5032189;28;20099;-65
2021/09/20 09:55:20;;;;;;;6.90;5.10;;;16.50;68.00;;;;;;5018373;28;20478;-65
2021/09/20 09:57:46;;;;;;;6.88;4.47;;;16.60;67.10;;;;;;5030898;28;20049;-66
2021/09/20 10:00:14;;;;;;;4.75;4.13;;;16.70;66.70;;;;;;5028458;28;20108;-65
2021/09/20 10:02:46;;;;;;;6.57;4.80;;;16.90;65.50;;;;;;5028249;28;20037;-65
2021/09/20 10:05:23;;;;;;;6.55;4.38;;;17.00;65.50;;;;;;5013496;28;20069;-65
2021/09/20 10:08:12;;;;;;;5.53;4.07;;;17.20;65.40;;;;;;5012637;28;20032;-65
2021/09/20 10:10:39;;;;;;;5.25;3.90;;;17.40;65.00;;;;;;5013883;28;20036;-65
2021/09/20 10:13:07;;;;;;;4.10;3.63;;;17.60;65.30;;;;;;5031905;28;20108;-65
2021/09/20 10:15:35;;;;;;;5.28;4.05;;;17.80;64.90;;;;;;5025615;28;20057;-66
2021/09/20 10:18:01;;;;;;;6.00;4.50;;;18.00;62.90;;;;;;5025360;28;20477;-65
2021/09/20 10:20:28;;;;;;;5.30;4.45;;;18.10;62.40;;;;;;5026358;28;20387;-65
2021/09/20 10:22:55;;;;;;;7.60;4.22;;;18.30;62.10;;;;;;5005582;28;20029;-65
2021/09/20 10:25:23;;;;;;;5.57;4.32;;;18.50;61.60;;;;;;5028566;28;20501;-66
2021/09/20 10:27:50;;;;;;;4.35;3.25;;;18.80;61.20;;;;;;5021909;28;20037;-66
2021/09/20 10:30:27;;;;;;;5.70;3.80;;;19.00;61.30;;;;;;5012294;28;20072;-66
2021/09/20 10:33:00;;;;;;;5.45;4.10;;;19.40;60.10;;;;;;5021470;28;20018;-66
2021/09/20 10:35:27;;;;;;;5.03;3.22;;;19.80;58.60;;;;;;5022497;28;20025;-66
2021/09/20 10:38:15;;;;;;;3.97;3.08;;;20.10;58.20;;;;;;5030596;28;20036;-66
2021/09/20 10:40:40;;;;;;;4.68;2.90;;;20.50;57.60;;;;;;5008504;28;20057;-66
2021/09/20 10:43:07;;;;;;;3.15;2.70;;;21.00;56.50;;;;;;5029477;28;20072;-66
2021/09/20 10:45:49;;;;;;;5.20;3.50;;;21.60;57.30;;;;;;5035439;28;20473;-66
2021/09/20 10:48:29;;;;;;;3.30;2.63;;;22.30;55.70;;;;;;5035848;28;20571;-66
2021/09/20 10:50:59;;;;;;;2.65;1.90;;;24.20;54.40;;;;;;5025402;28;20095;-67
2021/09/20 10:53:34;;;;;;;2.20;1.80;;;26.90;52.20;;;;;;5035274;28;20057;-67
2021/09/20 10:56:06;;;;;;;2.40;2.10;;;28.90;48.50;;;;;;5035455;28;20476;-67
2021/09/20 10:58:37;;;;;;;5.40;3.38;;;31.10;45.00;;;;;;5024069;28;20033;-67
2021/09/20 11:01:15;;;;;;;3.95;2.92;;;33.00;41.10;;;;;;5033462;28;20029;-67
2021/09/20 11:03:48;;;;;;;3.35;2.65;;;34.60;37.00;;;;;;5035670;28;20020;-67
2021/09/20 11:06:19;;;;;;;3.30;3.00;;;35.90;36.40;;;;;;5003511;28;20021;-67
2021/09/20 11:08:47;;;;;;;3.10;2.80;;;37.20;34.00;;;;;;5035435;28;20359;-66
2021/09/20 11:11:45;;;;;;;3.40;3.10;;;37.90;32.40;;;;;;5012134;28;20026;-67
2021/09/20 11:14:22;;;;;;;3.28;2.97;;;38.90;31.80;;;;;;5023112;28;20080;-67
2021/09/20 11:16:52;;;;;;;3.60;3.30;;;39.90;31.00;;;;;;5031098;28;20021;-67
2021/09/20 11:19:31;;;;;;;3.17;2.90;;;40.10;29.80;;;;;;5031175;28;20033;-67
2021/09/20 11:22:02;;;;;;;2.63;2.42;;;40.60;30.20;;;;;;5031543;28;20022;-67
2021/09/20 11:25:02;;;;;;;2.90;2.60;;;41.50;29.40;;;;;;5027848;28;20048;-67
2021/09/20 11:27:44;;;;;;;3.28;2.80;;;42.00;28.60;;;;;;5030789;28;20049;-67
2021/09/20 11:30:22;;;;;;;5.13;3.03;;;42.70;28.60;;;;;;5031459;28;20459;-67
2021/09/20 11:32:51;;;;;;;;;;;43.80;28.60;;;;;;5031450;28;20096;-67
2021/09/20 11:35:17;;;;;;;2.75;2.55;;;44.60;28.30;;;;;;5026899;28;20365;-67
2021/09/20 11:37:43;;;;;;;3.30;3.03;;;45.10;28.20;;;;;;5027665;28;20029;-67
2021/09/20 11:40:15;;;;;;;2.63;2.42;;;45.40;27.00;;;;;;5031758;28;20017;-67
2021/09/20 11:42:45;;;;;;;2.72;2.20;;;45.50;27.70;;;;;;5029305;28;20056;-67
2021/09/20 11:45:21;;;;;;;2.42;2.22;;;46.30;27.10;;;;;;5031667;28;20033;-67
2021/09/20 11:47:50;;;;;;;2.70;2.50;;;46.00;26.90;;;;;;5013836;28;20029;-67
2021/09/20 11:50:21;;;;;;;2.92;2.22;;;46.30;26.70;;;;;;5031008;28;20026;-67
2021/09/20 11:52:49;;;;;;;3.40;2.63;;;46.60;26.50;;;;;;5030046;28;20053;-67
2021/09/20 11:55:40;;;;;;;2.80;2.60;;;47.10;26.40;;;;;;5028569;28;20022;-67
2021/09/20 11:58:11;;;;;;;2.63;2.42;;;47.30;26.60;;;;;;5021039;28;20037;-67
2021/09/20 12:00:44;;;;;;;2.58;2.38;;;47.40;26.50;;;;;;5009688;28;20052;-67
2021/09/20 12:03:24;;;;;;;2.55;2.35;;;48.10;26.80;;;;;;5030888;28;20163;-67
2021/09/20 12:05:50;;;;;;;2.53;2.33;;;48.10;26.60;;;;;;5026169;28;20134;-67
2021/09/20 12:08:19;;;;;;;2.72;2.50;;;47.90;26.70;;;;;;5028718;28;20511;-67
2021/09/20 12:10:52;;;;;;;2.97;2.78;;;46.90;26.90;;;;;;5026547;28;20083;-67
2021/09/20 12:13:23;;;;;;;3.13;2.92;;;45.60;26.40;;;;;;5015010;28;20071;-67
2021/09/20 12:15:52;;;;;;;2.60;2.40;;;43.40;26.70;;;;;;5032904;28;20091;-67
2021/09/20 12:18:25;;;;;;;3.28;2.88;;;41.60;27.50;;;;;;5027885;28;20073;-67
2021/09/20 12:20:57;;;;;;;3.08;2.65;;;40.70;27.80;;;;;;5030069;28;20053;-67
2021/09/20 12:23:25;;;;;;;2.63;2.42;;;41.10;28.00;;;;;;5032148;28;20087;-67
2021/09/20 12:25:56;;;;;;;2.50;2.30;;;42.80;27.70;;;;;;5030177;28;20014;-67
2021/09/20 12:28:41;;;;;;;2.85;2.65;;;43.80;26.90;;;;;;5032747;28;20563;-66
2021/09/20 12:31:21;;;;;;;3.50;2.65;;;42.70;26.70;;;;;;5029810;28;20076;-66
2021/09/20 12:33:57;;;;;;;2.45;2.25;;;40.90;27.30;;;;;;5033687;28;20029;-67
2021/09/20 12:36:29;;;;;;;2.55;2.35;;;39.30;28.10;;;;;;5033961;28;20036;-67
2021/09/20 12:39:07;;;;;;;2.83;2.58;;;39.10;28.70;;;;;;5018691;28;20029;-66
2021/09/20 12:41:36;;;;;;;3.05;2.67;;;38.30;28.60;;;;;;5024121;28;20101;-66
2021/09/20 12:44:03;;;;;;;2.70;2.50;;;38.20;28.90;;;;;;5026707;28;20096;-66
2021/09/20 12:46:30;;;;;;;2.70;2.50;;;39.00;28.70;;;;;;5033123;28;20105;-66
2021/09/20 12:48:57;;;;;;;2.87;2.60;;;39.00;28.10;;;;;;5033605;28;20109;-66
2021/09/20 12:51:23;;;;;;;3.00;2.80;;;38.20;28.10;;;;;;5029725;28;20025;-66
2021/09/20 12:53:53;;;;;;;4.00;2.60;;;37.10;28.50;;;;;;5033251;28;20494;-66